Time;durP1;ratioP1;P1;durP2;ratioP2;P2;SDS_P1;SDS_P2;PMS_P1;PMS_P2;Temp;Humidity;BMP_temperature;BMP_pressure;BME280_temperature;BME280_humidity;BME280_pressure;Samples;Min_cycle;Max_cycle;Signal;HPM_P1;HPM_P2
2022/12/10 01:14:50;;;;;;;53.25;16.15;;;;;;;5.90;100.00;100043.19;1791534;79;28816;-77
2022/12/10 01:17:56;;;;;;;24.23;14.33;;;;;;;6.19;100.00;100036.73;1759327;81;21500;-77
2022/12/10 01:21:02;;;;;;;19.98;14.03;;;;;;;6.36;100.00;100037.24;1760749;81;21243;-78
2022/12/10 01:24:08;;;;;;;22.07;15.28;;;;;;;6.52;100.00;100034.31;1759804;81;21225;-77
2022/12/10 01:27:13;;;;;;;26.55;16.30;;;;;;;6.28;100.00;100041.23;1759858;81;21711;-77
2022/12/10 01:30:19;;;;;;;22.85;15.28;;;;;;;6.39;100.00;100043.70;1759725;81;21185;-78
2022/12/10 01:33:25;;;;;;;22.40;15.25;;;;;;;5.29;100.00;100038.38;1760515;81;22606;-77
2022/12/10 01:36:34;;;;;;;20.92;15.10;;;;;;;5.82;100.00;100037.66;1761024;81;21197;-77
2022/12/10 01:39:39;;;;;;;20.55;14.47;;;;;;;6.04;100.00;100037.77;1761050;81;21224;-78
2022/12/10 01:42:45;;;;;;;19.15;13.95;;;;;;;6.15;100.00;100040.76;1760951;81;21730;-78
2022/12/10 01:45:50;;;;;;;25.30;15.40;;;;;;;6.45;100.00;100027.81;1761058;81;21185;-78
2022/12/10 01:48:58;;;;;;;23.83;16.80;;;;;;;6.75;100.00;100026.52;1761004;81;21212;-77
2022/12/10 01:52:05;;;;;;;25.75;16.65;;;;;;;6.20;100.00;100027.56;1760871;81;21771;-78
2022/12/10 01:55:13;;;;;;;22.52;14.03;;;;;;;6.84;100.00;100027.77;1761028;81;21185;-77
2022/12/10 01:58:19;;;;;;;24.37;16.67;;;;;;;6.88;100.00;100022.37;1759858;81;21197;-78
2022/12/10 02:01:53;;;;;;;23.20;16.15;;;;;;;6.88;100.00;100018.29;1761042;81;21239;-78
2022/12/10 02:05:39;;;;;;;25.70;15.93;;;;;;;6.98;100.00;100023.63;1744763;81;21287;-78
2022/12/10 02:08:42;;;;;;;;;;;;;;;7.24;100.00;100020.02;1733538;83;21189;-77
2022/12/10 02:12:09;;;;;;;20.80;13.75;;;;;;;5.59;100.00;100024.16;1730949;83;20216;-79
2022/12/10 02:15:20;;;;;;;;;;;;;;;5.10;100.00;100023.03;1731676;83;21616;-79
2022/12/10 02:18:52;;;;;;;26.97;16.45;;;;;;;4.87;100.00;100023.89;1730346;83;20276;-78
2022/12/10 02:21:58;;;;;;;29.67;19.45;;;;;;;4.68;100.00;100022.58;1730383;83;21798;-78
2022/12/10 02:25:04;;;;;;;25.85;17.65;;;;;;;4.77;100.00;100024.41;1729098;83;21335;-78
2022/12/10 02:28:30;;;;;;;27.52;18.42;;;;;;;5.31;100.00;100022.80;1730385;83;21212;-78
2022/12/10 02:31:37;;;;;;;24.43;16.57;;;;;;;6.07;100.00;100025.26;1730299;83;22378;-77
2022/12/10 02:34:48;;;;;;;25.60;17.57;;;;;;;6.08;100.00;100022.03;1728964;83;21197;-77
2022/12/10 02:38:00;;;;;;;19.17;14.03;;;;;;;6.14;100.00;100025.48;1730359;83;21235;-78
2022/12/10 02:41:11;;;;;;;26.57;17.82;;;;;;;6.14;100.00;100016.83;1730236;83;21209;-78
2022/12/10 02:44:20;;;;;;;26.27;17.15;;;;;;;5.86;100.00;100009.72;1729447;83;21216;-78
2022/12/10 02:47:27;;;;;;;25.70;18.98;;;;;;;5.89;100.00;100011.62;1716412;83;21200;-78
2022/12/10 02:50:33;;;;;;;29.30;19.02;;;;;;;6.03;100.00;100008.07;1728931;83;21184;-79
2022/12/10 02:53:39;;;;;;;26.40;17.73;;;;;;;5.99;100.00;100017.53;1729036;83;21184;-78
2022/12/10 02:56:53;;;;;;;31.12;19.92;;;;;;;6.08;100.00;100022.89;1730288;83;21212;-78
2022/12/10 03:00:18;;;;;;;27.58;18.20;;;;;;;6.26;100.00;100024.77;1729655;83;21904;-78
2022/12/10 03:03:42;;;;;;;27.95;17.42;;;;;;;6.26;100.00;100020.17;1730074;83;21196;-78
2022/12/10 03:06:53;;;;;;;27.50;18.42;;;;;;;6.53;100.00;100015.63;1730270;83;21192;-78
2022/12/10 03:10:09;;;;;;;28.70;19.48;;;;;;;6.55;100.00;100023.14;1730278;83;21765;-78
2022/12/10 03:13:18;;;;;;;34.00;20.97;;;;;;;6.49;100.00;100003.37;1730256;83;21196;-78
2022/12/10 03:16:23;;;;;;;34.65;20.88;;;;;;;6.54;100.00;100010.54;1733666;82;21225;-79
2022/12/10 03:19:33;;;;;;;27.62;18.57;;;;;;;6.56;100.00;100007.18;1735219;82;21201;-79
2022/12/10 03:22:40;;;;;;;33.10;20.45;;;;;;;6.64;100.00;100008.09;1736660;82;21213;-79
2022/12/10 03:25:46;;;;;;;28.85;18.48;;;;;;;6.63;100.00;100007.76;1735347;82;21228;-79
2022/12/10 03:29:01;;;;;;;30.95;18.42;;;;;;;6.31;100.00;100000.70;1735180;82;21233;-78
2022/12/10 03:32:07;;;;;;;31.33;20.32;;;;;;;6.35;100.00;99993.91;1735223;82;21260;-78
2022/12/10 03:35:13;;;;;;;27.10;17.87;;;;;;;6.72;100.00;99993.70;1735824;82;21207;-77
2022/12/10 03:38:20;;;;;;;27.40;17.80;;;;;;;6.44;100.00;99983.46;1736532;82;21209;-78
2022/12/10 03:41:25;;;;;;;26.12;17.50;;;;;;;6.65;100.00;99985.84;1736529;82;21205;-78
2022/12/10 03:44:43;;;;;;;29.52;16.90;;;;;;;6.76;100.00;99985.57;1736266;82;21208;-79
2022/12/10 03:47:49;;;;;;;28.15;18.55;;;;;;;6.78;100.00;99971.84;1735100;82;21217;-77
2022/12/10 03:50:56;;;;;;;21.85;16.32;;;;;;;6.93;100.00;99974.81;1736512;82;21193;-78
2022/12/10 03:54:02;;;;;;;25.10;16.37;;;;;;;6.98;100.00;99971.11;1735090;82;21201;-79
2022/12/10 03:57:09;;;;;;;23.70;15.60;;;;;;;7.05;100.00;99969.43;1736598;82;21858;-77
2022/12/10 04:00:17;;;;;;;25.37;16.57;;;;;;;7.08;100.00;99969.11;1736198;82;21862;-77
2022/12/10 04:03:23;;;;;;;23.52;16.37;;;;;;;7.24;100.00;99975.98;1736499;82;21194;-77
2022/12/10 04:06:29;;;;;;;23.12;15.55;;;;;;;7.21;100.00;99976.33;1735199;82;21260;-77
2022/12/10 04:09:34;;;;;;;27.30;18.15;;;;;;;7.42;100.00;99984.05;1736453;82;21747;-77
2022/12/10 04:12:41;;;;;;;30.68;19.55;;;;;;;7.65;100.00;99976.14;1736672;82;21189;-77
2022/12/10 04:19:17;;;;;;;33.30;21.00;;;;;;;7.03;100.00;99974.19;1730239;83;21176;-77
2022/12/10 04:29:12;;;;;;;31.37;21.15;;;;;;;7.50;100.00;99966.92;1730243;83;21196;-78
2022/12/10 04:32:17;;;;;;;35.38;21.15;;;;;;;5.15;100.00;99976.50;1729097;83;21264;-77
2022/12/10 04:35:23;;;;;;;32.15;20.85;;;;;;;4.72;100.00;99982.00;1729990;83;21450;-78
2022/12/10 04:38:29;;;;;;;34.00;21.87;;;;;;;5.43;100.00;99980.57;1730287;83;21194;-77
2022/12/10 04:41:36;;;;;;;28.92;19.85;;;;;;;4.75;100.00;99978.13;1729993;83;21402;-77
2022/12/10 04:44:35;;;;;;;30.00;20.27;;;;;;;5.33;100.00;99975.20;1729893;83;21870;-77
2022/12/10 04:47:28;;;;;;;34.15;19.67;;;;;;;5.74;100.00;99980.59;1728477;83;21156;-77
2022/12/10 04:50:33;;;;;;;33.63;18.65;;;;;;;5.24;100.00;99973.39;1729929;83;21200;-77
2022/12/10 04:53:40;;;;;;;31.80;20.55;;;;;;;6.00;100.00;99981.22;1729799;83;21169;-78
2022/12/10 04:56:46;;;;;;;30.52;19.10;;;;;;;5.64;100.00;99973.00;1729042;83;21243;-78
2022/12/10 04:59:51;;;;;;;29.12;18.32;;;;;;;4.86;100.00;99963.92;1729944;83;21204;-78
2022/12/10 05:02:59;;;;;;;29.57;18.62;;;;;;;5.85;100.00;99972.22;1728570;83;21267;-79
2022/12/10 05:06:10;;;;;;;26.90;17.75;;;;;;;5.97;100.00;99982.36;1728516;81;22040;-78
2022/12/10 05:09:18;;;;;;;24.05;16.48;;;;;;;5.30;100.00;99972.27;1728397;83;21208;-78
2022/12/10 05:12:23;;;;;;;27.93;17.95;;;;;;;6.05;100.00;99974.81;1705541;83;21212;-78
2022/12/10 05:15:29;;;;;;;24.55;16.20;;;;;;;6.09;100.00;99978.93;1729916;83;21745;-80
2022/12/10 05:18:35;;;;;;;24.05;15.40;;;;;;;6.35;100.00;99980.33;1708409;82;21572;-79
2022/12/10 05:25:04;;;;;;;21.50;14.75;;;;;;;5.84;100.00;99977.31;1700181;84;21192;-78
2022/12/10 05:28:11;;;;;;;24.18;17.25;;;;;;;5.19;100.00;99975.20;1699450;83;21191;-79
2022/12/10 05:31:10;;;;;;;21.30;15.38;;;;;;;5.70;100.00;99979.70;1693768;84;21196;-79
2022/12/10 05:34:16;;;;;;;22.48;15.43;;;;;;;5.50;100.00;99989.80;1716050;83;21188;-78
2022/12/10 05:37:22;;;;;;;33.10;17.80;;;;;;;5.13;100.00;99988.86;1686987;85;21211;-79
2022/12/10 05:40:27;;;;;;;21.20;14.10;;;;;;;5.13;100.00;99988.00;1714995;83;21198;-78
2022/12/10 05:43:33;;;;;;;25.72;14.95;;;;;;;5.78;100.00;99986.05;1687751;85;21213;-79
2022/12/10 05:46:39;;;;;;;22.62;16.52;;;;;;;5.55;100.00;99980.70;1714922;83;21211;-77
2022/12/10 05:49:47;;;;;;;24.72;16.23;;;;;;;5.24;100.00;99978.31;1689161;85;21574;-79
2022/12/10 05:52:53;;;;;;;30.72;18.70;;;;;;;5.21;100.00;99979.11;1716433;83;21500;-79
2022/12/10 05:56:01;;;;;;;29.00;18.40;;;;;;;5.85;100.00;99971.37;1689171;85;21201;-79
2022/12/10 05:59:09;;;;;;;24.85;16.57;;;;;;;5.97;100.00;99970.15;1698316;83;21171;-79
2022/12/10 06:02:15;;;;;;;28.98;18.55;;;;;;;5.89;100.00;99968.70;1688946;85;21347;-78
2022/12/10 06:05:21;;;;;;;30.10;18.23;;;;;;;6.08;100.00;99978.08;1715029;83;21231;-78
2022/12/10 06:08:27;;;;;;;26.73;17.62;;;;;;;6.29;100.00;99981.81;1689155;85;21208;-78
2022/12/10 06:11:34;;;;;;;30.70;18.70;;;;;;;5.72;100.00;99974.96;1716372;83;21200;-78
2022/12/10 06:14:39;;;;;;;33.18;18.95;;;;;;;5.84;100.00;99973.23;1689157;85;21213;-78
2022/12/10 06:17:45;;;;;;;29.80;18.42;;;;;;;5.96;100.00;99966.24;1715531;83;21227;-79
2022/12/10 06:20:51;;;;;;;30.12;18.80;;;;;;;5.72;100.00;99964.95;1747706;82;21202;-78
2022/12/10 06:23:56;;;;;;;30.85;19.42;;;;;;;6.03;100.00;99974.13;1747662;82;21190;-78
2022/12/10 06:27:03;;;;;;;36.60;22.07;;;;;;;5.80;100.00;99972.34;1747320;82;21255;-79
2022/12/10 06:30:10;;;;;;;36.33;21.33;;;;;;;5.58;100.00;99973.62;1747723;82;22021;-79
2022/12/10 06:33:15;;;;;;;33.08;20.50;;;;;;;5.61;100.00;99976.89;1746578;82;21195;-79
2022/12/10 06:36:21;;;;;;;31.48;20.95;;;;;;;5.67;100.00;99975.42;1746194;82;21239;-78
2022/12/10 06:39:28;;;;;;;30.75;20.82;;;;;;;5.68;100.00;99974.41;1747538;82;21171;-78
2022/12/10 06:42:33;;;;;;;27.00;16.87;;;;;;;5.66;100.00;99968.80;1747724;82;21781;-78
2022/12/10 06:45:41;;;;;;;17.62;13.05;;;;;;;5.65;100.00;99967.95;1747572;82;21195;-77
2022/12/10 06:48:47;;;;;;;16.60;11.93;;;;;;;5.69;100.00;99970.67;1746270;82;21761;-78
2022/12/10 06:51:52;;;;;;;14.35;10.70;;;;;;;5.57;100.00;99967.85;1747664;82;21187;-79
2022/12/10 06:54:59;;;;;;;18.70;10.32;;;;;;;5.59;100.00;99969.89;1728332;82;21168;-79
2022/12/10 06:58:04;;;;;;;12.55;9.95;;;;;;;5.61;100.00;99967.39;1746953;82;21243;-77
2022/12/10 07:01:16;;;;;;;13.65;10.25;;;;;;;5.46;100.00;99968.05;1747708;82;21196;-78
2022/12/10 07:04:22;;;;;;;11.53;10.03;;;;;;;5.45;100.00;99970.41;1746958;82;21739;-79
2022/12/10 07:07:28;;;;;;;13.13;10.20;;;;;;;5.47;100.00;99965.20;1746371;82;21358;-78
2022/12/10 07:10:35;;;;;;;18.15;11.22;;;;;;;5.47;100.00;99964.34;1746367;82;21577;-77
2022/12/10 07:13:40;;;;;;;14.30;10.40;;;;;;;5.43;100.00;99965.66;1747552;82;21785;-78
2022/12/10 07:16:47;;;;;;;12.53;9.23;;;;;;;5.45;100.00;99954.14;1747633;82;21226;-79
2022/12/10 07:19:53;;;;;;;12.07;8.88;;;;;;;5.42;100.00;99959.38;1744296;80;21208;-79
2022/12/10 07:22:59;;;;;;;11.33;8.30;;;;;;;5.48;100.00;99950.63;1719393;83;21184;-79
2022/12/10 07:26:00;;;;;;;10.30;8.48;;;;;;;5.59;100.00;99946.83;1719486;83;21195;-79
2022/12/10 07:29:06;;;;;;;9.05;7.25;;;;;;;5.95;100.00;99956.40;1718313;83;21227;-79
2022/12/10 07:32:12;;;;;;;10.82;8.30;;;;;;;5.52;100.00;99946.61;1718782;83;21307;-78
2022/12/10 07:35:18;;;;;;;11.60;9.63;;;;;;;5.49;100.00;99952.32;1718309;83;21231;-79
2022/12/10 07:38:23;;;;;;;11.93;9.18;;;;;;;6.92;100.00;99946.78;1718887;83;21228;-78
2022/12/10 07:41:30;;;;;;;12.25;9.23;;;;;;;7.22;100.00;99941.30;1719471;83;21184;-78
2022/12/10 07:44:35;;;;;;;13.58;9.53;;;;;;;7.26;100.00;99942.69;1719200;83;21247;-78
2022/12/10 07:47:45;;;;;;;16.30;9.75;;;;;;;7.59;100.00;99934.12;1718773;83;23204;-78
2022/12/10 07:50:50;;;;;;;12.95;10.63;;;;;;;7.68;100.00;99920.87;1717220;83;21295;-79
2022/12/10 07:54:01;;;;;;;17.42;10.63;;;;;;;7.60;100.00;99910.47;1717328;83;21211;-79
2022/12/10 07:57:07;;;;;;;11.38;9.03;;;;;;;7.95;100.00;99907.95;1717237;83;21208;-79
2022/12/10 08:00:17;;;;;;;11.03;8.53;;;;;;;8.09;100.00;99902.34;1718717;83;21188;-77
2022/12/10 08:03:23;;;;;;;13.00;9.93;;;;;;;7.84;100.00;99898.25;1718787;83;21203;-78
2022/12/10 08:06:29;;;;;;;14.83;10.70;;;;;;;8.19;100.00;99898.45;1719079;83;21790;-78
2022/12/10 08:09:36;;;;;;;13.90;10.53;;;;;;;8.10;100.00;99890.45;1716939;83;21212;-78
2022/12/10 08:12:42;;;;;;;14.23;10.35;;;;;;;8.07;100.00;99882.61;1718583;83;21203;-78
2022/12/10 08:15:49;;;;;;;13.38;10.53;;;;;;;8.29;100.00;99877.83;1718083;83;21529;-77
2022/12/10 08:18:54;;;;;;;17.02;11.43;;;;;;;8.17;100.00;99865.56;1718132;83;21259;-79
2022/12/10 08:22:01;;;;;;;17.77;12.88;;;;;;;8.25;100.00;99865.56;1720465;82;21164;-79
2022/12/10 08:25:07;;;;;;;21.42;12.82;;;;;;;8.39;100.00;99858.08;1721082;83;21203;-79
2022/12/10 08:28:12;;;;;;;23.57;14.33;;;;;;;8.40;100.00;99844.79;1721098;83;21211;-79
2022/12/10 08:31:19;;;;;;;21.02;14.73;;;;;;;8.50;100.00;99827.39;1721109;83;21196;-79
2022/12/10 08:34:27;;;;;;;27.02;16.52;;;;;;;8.36;100.00;99821.62;1721298;83;21774;-78
2022/12/10 08:37:33;;;;;;;22.85;15.43;;;;;;;8.53;100.00;99808.82;1721284;83;21188;-77
2022/12/10 08:40:38;;;;;;;21.50;15.18;;;;;;;8.68;100.00;99803.48;1721219;83;21192;-78
2022/12/10 08:43:44;;;;;;;22.52;15.25;;;;;;;8.91;100.00;99795.37;1721233;83;22490;-77
2022/12/10 08:46:49;;;;;;;29.87;17.00;;;;;;;9.12;100.00;99793.38;1721274;83;21191;-77
2022/12/10 08:49:55;;;;;;;21.05;15.75;;;;;;;9.14;100.00;99787.23;1720303;83;21196;-78
2022/12/10 08:53:00;;;;;;;22.48;15.43;;;;;;;9.23;100.00;99780.70;1721151;83;21208;-78
2022/12/10 08:56:08;;;;;;;24.15;16.12;;;;;;;9.31;100.00;99783.87;1724274;83;21232;-78
2022/12/10 08:59:15;;;;;;;20.43;14.20;;;;;;;9.47;100.00;99783.25;1722034;83;21267;-77
2022/12/10 09:02:21;;;;;;;21.85;14.05;;;;;;;9.48;100.00;99778.12;1726745;83;21770;-77
2022/12/10 09:05:26;;;;;;;18.82;13.35;;;;;;;9.42;100.00;99780.73;1725458;81;21751;-79
2022/12/10 09:08:32;;;;;;;19.75;13.50;;;;;;;9.46;100.00;99774.73;1726950;83;21215;-78
2022/12/10 09:11:40;;;;;;;22.85;14.40;;;;;;;9.68;100.00;99761.23;1727154;83;21230;-77
2022/12/10 09:14:45;;;;;;;28.27;16.40;;;;;;;9.71;100.00;99774.53;1727116;83;21202;-77
2022/12/10 09:17:51;;;;;;;22.98;15.15;;;;;;;9.51;100.00;99769.25;1725315;83;21177;-79
2022/12/10 09:20:57;;;;;;;23.47;15.50;;;;;;;9.96;100.00;99759.61;1725559;83;21231;-79
2022/12/10 09:24:03;;;;;;;25.48;16.12;;;;;;;10.35;99.65;99751.73;1730729;83;21180;-78
2022/12/10 09:27:09;;;;;;;30.17;17.48;;;;;;;10.29;98.87;99741.53;1732440;83;21235;-77
2022/12/10 09:30:16;;;;;;;27.40;17.42;;;;;;;10.31;98.12;99736.74;1732107;83;21211;-77
2022/12/10 09:33:22;;;;;;;28.20;17.82;;;;;;;9.82;100.00;99723.55;1732780;83;21259;-77
2022/12/10 09:36:28;;;;;;;30.45;17.37;;;;;;;9.88;100.00;99724.20;1730547;83;21204;-77
2022/12/10 09:39:33;;;;;;;30.08;18.15;;;;;;;10.36;99.09;99721.98;1732286;83;21244;-79
2022/12/10 09:43:08;;;;;;;26.52;17.23;;;;;;;10.10;98.27;99712.84;1731442;83;21196;-78
2022/12/10 09:46:25;;;;;;;29.32;18.45;;;;;;;10.10;99.04;99714.73;1703298;84;21204;-79
2022/12/10 09:49:47;;;;;;;31.60;18.20;;;;;;;10.27;99.01;99703.14;1703203;84;21216;-77
2022/12/10 09:52:55;;;;;;;26.10;17.17;;;;;;;10.21;97.44;99704.72;1702161;84;21287;-78
2022/12/10 09:55:55;;;;;;;28.32;15.78;;;;;;;9.99;98.36;99701.02;1710686;83;21196;-79
2022/12/10 09:58:48;;;;;;;25.30;14.98;;;;;;;9.89;100.00;99691.73;1717823;83;21804;-78
2022/12/10 10:01:59;;;;;;;23.52;15.95;;;;;;;10.34;99.27;99683.04;1723194;83;21750;-78
2022/12/10 10:05:17;;;;;;;19.73;14.33;;;;;;;9.83;100.00;99682.91;1731701;81;21227;-78
2022/12/10 10:08:47;;;;;;;17.07;12.03;;;;;;;10.01;100.00;99684.44;1732578;83;22560;-78
2022/12/10 10:11:53;;;;;;;20.25;11.22;;;;;;;10.25;100.00;99678.70;1731748;83;21227;-78
2022/12/10 10:15:00;;;;;;;19.25;12.75;;;;;;;10.29;100.00;99676.45;1731817;83;21739;-78
2022/12/10 10:18:10;;;;;;;16.37;11.38;;;;;;;10.51;100.00;99676.01;1731424;83;21252;-77
2022/12/10 10:21:19;;;;;;;18.20;11.37;;;;;;;10.93;97.00;99660.19;1731016;83;21216;-77
2022/12/10 10:24:38;;;;;;;16.23;11.70;;;;;;;10.94;97.69;99661.35;1727934;81;21558;-77
2022/12/10 10:27:46;;;;;;;17.32;11.25;;;;;;;10.91;96.45;99665.84;1755131;81;21239;-77
2022/12/10 10:30:53;;;;;;;14.73;10.88;;;;;;;10.86;97.20;99662.84;1755731;81;21294;-77
2022/12/10 10:34:04;;;;;;;18.92;12.70;;;;;;;11.03;96.59;99670.81;1756278;81;21936;-78
2022/12/10 10:37:09;;;;;;;20.02;12.85;;;;;;;11.03;96.67;99659.34;1755985;81;21774;-77
2022/12/10 10:40:39;;;;;;;25.15;12.88;;;;;;;11.16;95.91;99666.33;1755060;81;21200;-77
2022/12/10 10:43:49;;;;;;;20.65;12.18;;;;;;;11.07;97.01;99657.07;1756303;81;21190;-76
2022/12/10 10:46:59;;;;;;;23.15;12.80;;;;;;;11.29;95.63;99653.26;1756450;81;21208;-78
2022/12/10 10:50:04;;;;;;;17.32;10.85;;;;;;;11.63;94.75;99648.92;1756374;81;21193;-77
2022/12/10 10:53:30;;;;;;;15.23;10.32;;;;;;;11.85;93.06;99638.77;1755374;81;21235;-78
2022/12/10 10:56:49;;;;;;;17.00;9.88;;;;;;;11.97;92.58;99636.64;1756462;81;21295;-78
2022/12/10 10:59:56;;;;;;;16.30;9.95;;;;;;;11.48;94.76;99627.96;1756478;81;21482;-79
2022/12/10 11:03:05;;;;;;;18.45;10.32;;;;;;;11.77;94.40;99624.16;1756537;81;21811;-79
2022/12/10 11:06:13;;;;;;;19.55;10.65;;;;;;;11.78;94.09;99625.00;1732976;81;21235;-79
2022/12/10 11:09:36;;;;;;;20.53;11.37;;;;;;;12.14;92.99;99608.89;1737888;81;21204;-80
2022/12/10 11:12:46;;;;;;;20.12;10.75;;;;;;;12.08;92.57;99608.34;1756365;81;21192;-79
2022/12/10 11:15:52;;;;;;;19.75;11.33;;;;;;;12.28;92.31;99598.33;1755811;81;21216;-77
2022/12/10 11:19:06;;;;;;;16.97;10.20;;;;;;;12.20;92.56;99588.91;1755776;81;21223;-78
2022/12/10 11:22:34;;;;;;;17.25;11.60;;;;;;;12.44;91.88;99588.89;1754723;81;21212;-77
2022/12/10 11:26:06;;;;;;;13.15;9.28;;;;;;;12.20;91.72;99577.41;1733296;81;21306;-78
2022/12/10 11:29:35;;;;;;;14.68;8.33;;;;;;;12.45;91.44;99572.21;1732549;83;21191;-79
2022/12/10 11:32:57;;;;;;;15.28;8.15;;;;;;;12.49;91.05;99574.86;1730869;83;21291;-77
2022/12/10 11:36:29;;;;;;;11.80;8.05;;;;;;;12.47;90.95;99570.12;1732621;83;21204;-77
2022/12/10 11:39:55;;;;;;;12.37;8.00;;;;;;;12.51;91.89;99566.42;1732511;83;21278;-78
2022/12/10 11:43:13;;;;;;;10.08;7.35;;;;;;;12.53;93.21;99569.29;1732405;83;21181;-77
2022/12/10 11:46:59;;;;;;;8.25;6.60;;;;;;;13.27;88.85;99567.52;1732513;83;21746;-78
2022/12/10 11:50:14;;;;;;;10.72;6.50;;;;;;;12.91;89.85;99568.73;1732749;83;21228;-77
2022/12/10 11:53:38;;;;;;;10.60;7.28;;;;;;;12.96;89.75;99564.82;1731820;83;21208;-78
2022/12/10 11:56:54;;;;;;;12.82;6.47;;;;;;;13.01;89.92;99564.19;1733476;83;21303;-78
2022/12/10 12:00:18;;;;;;;9.83;6.40;;;;;;;13.10;89.75;99565.67;1731990;83;21196;-78
2022/12/10 12:03:46;;;;;;;8.90;6.05;;;;;;;13.05;89.85;99559.45;1733327;83;21239;-78
2022/12/10 12:07:02;;;;;;;7.87;5.45;;;;;;;12.95;90.42;99559.02;1733450;83;21735;-78
2022/12/10 12:10:24;;;;;;;8.08;5.30;;;;;;;13.50;88.68;99561.05;1729941;83;21204;-79
2022/12/10 12:14:02;;;;;;;8.23;5.87;;;;;;;13.54;87.93;99558.70;1732338;83;21180;-77
2022/12/10 12:17:24;;;;;;;13.62;7.05;;;;;;;13.65;87.63;99552.57;1731896;83;21220;-77
2022/12/10 12:20:36;;;;;;;11.97;7.12;;;;;;;13.61;88.16;99563.67;1732954;83;21200;-78
2022/12/10 12:24:11;;;;;;;10.23;6.97;;;;;;;13.78;87.57;99557.17;1732403;83;21231;-78
2022/12/10 12:27:28;;;;;;;11.73;7.62;;;;;;;14.00;86.96;99546.22;1704568;84;21199;-78
2022/12/10 12:30:34;;;;;;;11.95;8.18;;;;;;;14.01;86.44;99542.40;1704597;84;21774;-78
2022/12/10 12:33:59;;;;;;;11.60;8.23;;;;;;;14.05;86.59;99544.19;1704718;84;21195;-79
2022/12/10 12:37:07;;;;;;;11.80;8.35;;;;;;;14.28;85.20;99532.67;1703300;84;21313;-78
2022/12/10 12:40:35;;;;;;;15.93;8.73;;;;;;;11.17;93.33;99524.83;1683684;84;21353;-79
2022/12/10 12:43:53;;;;;;;12.68;9.10;;;;;;;9.62;100.00;99530.73;1703469;84;21187;-79
2022/12/10 12:46:59;;;;;;;12.43;8.23;;;;;;;9.46;100.00;99538.61;1704683;84;21235;-79
2022/12/10 12:50:05;;;;;;;10.82;7.80;;;;;;;9.29;100.00;99534.35;1704588;84;21242;-78
2022/12/10 12:53:11;;;;;;;12.68;9.35;;;;;;;11.45;100.00;99533.88;1703363;84;21227;-78
2022/12/10 12:56:37;;;;;;;11.90;8.28;;;;;;;12.26;100.00;99527.75;1704157;84;21194;-79
2022/12/10 13:00:11;;;;;;;13.32;8.48;;;;;;;12.45;100.00;99527.48;1700836;84;22654;-78
2022/12/10 13:03:41;;;;;;;11.65;8.20;;;;;;;12.82;100.00;99531.56;1703447;84;21211;-79
2022/12/10 13:06:46;;;;;;;10.08;7.60;;;;;;;12.81;98.75;99527.13;1704443;84;21179;-78
2022/12/10 13:09:59;;;;;;;11.18;8.05;;;;;;;13.14;96.71;99521.64;1704081;84;21833;-78
2022/12/10 13:13:18;;;;;;;10.15;8.03;;;;;;;13.09;96.13;99519.22;1703346;84;21223;-78
2022/12/10 13:16:47;;;;;;;12.53;8.45;;;;;;;13.01;96.59;99516.99;1699381;84;21219;-77
2022/12/10 13:19:53;;;;;;;16.15;9.63;;;;;;;13.29;95.24;99521.45;1704591;84;21183;-79
2022/12/10 13:23:34;;;;;;;11.80;8.60;;;;;;;13.22;95.21;99511.86;1703957;84;21792;-79
2022/12/10 13:26:41;;;;;;;11.45;8.90;;;;;;;13.30;94.79;99513.52;1705747;82;21195;-77
2022/12/10 13:30:04;;;;;;;11.83;7.95;;;;;;;13.66;93.75;99513.03;1698996;84;21186;-77
2022/12/10 13:33:26;;;;;;;11.08;7.62;;;;;;;13.82;91.69;99519.95;1696257;84;21241;-77
2022/12/10 13:36:42;;;;;;;11.15;8.05;;;;;;;13.68;92.75;99513.64;1696499;84;21792;-77
2022/12/10 13:39:59;;;;;;;14.20;9.23;;;;;;;13.76;92.12;99513.42;1695003;84;21257;-77
2022/12/10 13:47:12;;;;;;;10.38;7.15;;;;;;;14.02;90.72;99530.36;1640285;87;22213;-78
2022/12/10 13:50:49;;;;;;;8.50;6.75;;;;;;;13.97;90.66;99527.42;1638808;84;21235;-79
2022/12/10 13:54:00;;;;;;;8.50;6.60;;;;;;;13.93;90.38;99520.67;1698308;84;21259;-78
2022/12/10 13:57:25;;;;;;;8.60;6.70;;;;;;;13.89;90.58;99521.32;1703331;84;21171;-78
2022/12/10 14:00:37;;;;;;;7.35;5.80;;;;;;;13.87;90.44;99522.89;1674401;84;21222;-77
2022/12/10 14:04:00;;;;;;;6.70;5.87;;;;;;;14.17;89.03;99517.70;1672606;85;21201;-76
2022/12/10 14:07:05;;;;;;;7.72;5.53;;;;;;;9.85;100.00;99521.06;1673577;85;21214;-78
2022/12/10 14:10:10;;;;;;;5.35;4.72;;;;;;;9.55;100.00;99513.43;1673503;85;21263;-76
2022/12/10 14:13:11;;;;;;;5.17;4.65;;;;;;;9.81;100.00;99518.38;1654759;84;21296;-76
2022/12/10 14:16:05;;;;;;;5.22;4.17;;;;;;;9.53;100.00;99517.37;1692715;84;21277;-76
2022/12/10 14:19:15;;;;;;;6.22;4.72;;;;;;;9.57;100.00;99518.69;1691467;84;21912;-77
2022/12/10 14:22:40;;;;;;;6.17;4.62;;;;;;;9.75;100.00;99508.23;1692840;84;21222;-78
2022/12/10 14:25:52;;;;;;;7.20;4.78;;;;;;;9.33;100.00;99509.75;1692336;84;22351;-76
2022/12/10 14:29:26;;;;;;;7.50;5.15;;;;;;;9.65;100.00;99508.52;1692401;83;21243;-77
2022/12/10 14:32:43;;;;;;;7.15;5.70;;;;;;;11.43;100.00;99501.75;1690943;85;21247;-76
2022/12/10 14:35:49;;;;;;;10.40;7.22;;;;;;;12.18;100.00;99501.88;1691047;85;21231;-76
2022/12/10 14:38:57;;;;;;;8.30;6.55;;;;;;;12.33;100.00;99493.48;1691006;85;21244;-77
2022/12/10 14:42:05;;;;;;;11.97;8.33;;;;;;;10.92;100.00;99488.34;1690670;85;21227;-76
2022/12/10 14:45:13;;;;;;;9.43;7.80;;;;;;;9.87;100.00;99484.83;1718994;83;21176;-76
2022/12/10 14:48:21;;;;;;;10.88;8.65;;;;;;;10.23;100.00;99485.34;1725847;83;21212;-77
2022/12/10 14:51:29;;;;;;;10.43;8.40;;;;;;;9.87;100.00;99478.00;1725718;83;21204;-76
2022/12/10 14:54:39;;;;;;;10.20;7.83;;;;;;;9.47;100.00;99493.89;1725028;83;21358;-76
2022/12/10 14:57:55;;;;;;;10.13;6.75;;;;;;;9.54;100.00;99474.85;1725806;83;21224;-75
2022/12/10 15:00:50;;;;;;;8.55;5.75;;;;;;;9.52;100.00;99472.84;1725223;83;21255;-76
2022/12/10 15:03:43;;;;;;;9.88;6.67;;;;;;;9.43;100.00;99472.09;1725304;83;21193;-76
2022/12/10 15:06:35;;;;;;;8.80;6.78;;;;;;;9.41;100.00;99471.45;1724186;83;21240;-77
2022/12/10 15:09:26;;;;;;;7.30;6.15;;;;;;;12.47;100.00;99470.02;1725594;83;21197;-77
2022/12/10 15:12:43;;;;;;;9.70;6.92;;;;;;;12.86;100.00;99466.97;1724847;83;21196;-77
2022/12/10 15:15:49;;;;;;;6.95;5.50;;;;;;;13.35;100.00;99471.68;1695267;84;21196;-77
2022/12/10 15:18:56;;;;;;;11.43;6.97;;;;;;;13.19;100.00;99469.68;1695299;84;21201;-77
2022/12/10 15:22:28;;;;;;;7.20;5.92;;;;;;;13.47;98.40;99470.81;1693947;84;21224;-78
2022/12/10 15:25:36;;;;;;;6.85;5.80;;;;;;;13.45;97.96;99467.95;1694295;84;21216;-78
2022/12/10 15:28:47;;;;;;;7.95;6.30;;;;;;;13.44;97.52;99464.37;1710563;82;21237;-77
2022/12/10 15:31:55;;;;;;;8.30;5.92;;;;;;;13.38;97.22;99461.12;1745145;82;21197;-78
2022/12/10 15:35:08;;;;;;;9.73;6.78;;;;;;;13.38;96.89;99465.77;1744394;81;21281;-77
2022/12/10 15:38:19;;;;;;;12.88;6.50;;;;;;;13.30;97.61;99459.43;1754626;81;22030;-78
2022/12/10 15:41:52;;;;;;;8.48;6.58;;;;;;;13.15;98.64;99467.57;1754978;81;21176;-77
2022/12/10 15:45:04;;;;;;;11.28;7.72;;;;;;;13.81;95.94;99460.55;1754102;81;21220;-76
2022/12/10 15:48:12;;;;;;;7.97;6.12;;;;;;;13.60;95.62;99463.07;1754582;81;21192;-77
2022/12/10 15:51:19;;;;;;;7.03;5.65;;;;;;;13.96;93.81;99468.52;1754603;81;21291;-77
2022/12/10 15:54:32;;;;;;;7.58;5.80;;;;;;;14.18;92.45;99464.92;1750873;81;21309;-76
2022/12/10 15:57:48;;;;;;;6.62;5.55;;;;;;;13.85;93.22;99463.17;1744041;82;21241;-77
2022/12/10 16:00:51;;;;;;;7.65;5.17;;;;;;;13.70;93.78;99464.83;1739571;81;21191;-77
2022/12/10 16:03:57;;;;;;;7.12;5.28;;;;;;;13.69;94.08;99461.77;1736023;80;21765;-77
2022/12/10 16:07:03;;;;;;;7.55;5.22;;;;;;;14.36;91.29;99460.05;1754583;81;21311;-77
2022/12/10 16:10:08;;;;;;;7.87;5.60;;;;;;;13.89;91.43;99461.68;1754229;81;21187;-77